General Aviation Weather

Text Reports

Enter one or more of the following location identifiers separated by a space:

Zip Code, Four-Character ICAO or Three-Character IATA airport codes.

METAR - Aviation Routine Weather Report
KPNM - Princeton, Minnesota
Updated at 9:54 PM GMT on July 26, 2016 (4:54 PM CDT):
METAR KPNM 262154Z AUTO 22006KT 10SM CLR 32/21 A2996 RMK AO2 LTG DSNT NW
TAF - Terminal Area Forecast
KPNM - Princeton, Minnesota
Updated at 9:54 PM GMT on July 26, 2016 (4:54 PM CDT):
No TAF is currently available for this location.
Decoded:
No decoded TAF is available.
PIREP - Pilot Weather Report
KPNM - Princeton, Minnesota
Updated at 9:54 PM GMT on July 26, 2016 (4:54 PM CDT):
No PIREP is currently available for this location.
AIRMET - Airmens Meteorological Information
KPNM - Princeton, Minnesota
Updated at 9:54 PM GMT on July 26, 2016 (4:54 PM CDT):
No AIRMET is currently available for this location.
SIGMET - Significant Meteorological Information
KPNM - Princeton, Minnesota
Updated at 9:54 PM GMT on July 26, 2016 (4:54 PM CDT):
No SIGMET is currently available for this location.
NOTAM - Notice to Airmen
KPNM - Princeton, Minnesota
Updated at 9:54 PM GMT on July 26, 2016 (4:54 PM CDT):
No NOTAM is currently available for this location.
Forecast Area
KPNM - Princeton, Minnesota
Updated at 9:54 PM GMT on July 26, 2016 (4:54 PM CDT):
No NOTAM is currently available for this location.
Aviation Weather Maps